Paradise, Missouri
Current Conditions -  °F | °C
As of 1:53 AM on Sunday 21 Dec 2014 (Local Time) from KMCI Reporting Station
Haze Haze  
Wind Chill: -3°   Ceiling: Unl
Heat Index:   Visibility: 6mi
Dew Point:   Wind: 12mph
Humidity: 92%   Direction: 180°S
Pressure: 30.08"   Gusts: NA
Location:  39.3944°N, 94.5382°W
Report Text: KMCI 210753Z 18010KT 6SM BR FEW130 02/01 A3008 RMK AO2 SLP190 T00170006 $
Loading
Personal Weather Stations






























Interactive Weather Map New forecast layout! Learn more

10-Day Weather Forecast

Advertisements
Track Severe Weather on mobile